sensor_id;sensor_type;location;lat;lon;timestamp;P1;durP1;ratioP1;P2;durP2;ratioP2
46116;SDS011;32591;48.102;11.772;2023-05-10T00:00:23;1.23;;;0.85;;
46116;SDS011;32591;48.102;11.772;2023-05-10T00:02:52;2.33;;;0.98;;
46116;SDS011;32591;48.102;11.772;2023-05-10T00:05:19;1.25;;;0.75;;
46116;SDS011;32591;48.102;11.772;2023-05-10T00:07:46;2.05;;;0.80;;
46116;SDS011;32591;48.102;11.772;2023-05-10T00:10:13;3.63;;;1.13;;
46116;SDS011;32591;48.102;11.772;2023-05-10T00:12:40;1.35;;;0.77;;
46116;SDS011;32591;48.102;11.772;2023-05-10T00:15:08;1.30;;;0.77;;
46116;SDS011;32591;48.102;11.772;2023-05-10T00:17:35;1.55;;;1.10;;
46116;SDS011;32591;48.102;11.772;2023-05-10T00:20:04;1.92;;;0.98;;
46116;SDS011;32591;48.102;11.772;2023-05-10T00:22:32;1.67;;;1.58;;
46116;SDS011;32591;48.102;11.772;2023-05-10T00:24:59;1.77;;;0.90;;
46116;SDS011;32591;48.102;11.772;2023-05-10T00:27:26;1.13;;;0.82;;
46116;SDS011;32591;48.102;11.772;2023-05-10T00:29:53;1.63;;;1.10;;
46116;SDS011;32591;48.102;11.772;2023-05-10T00:32:20;0.93;;;0.80;;
46116;SDS011;32591;48.102;11.772;2023-05-10T00:34:47;3.03;;;0.98;;
46116;SDS011;32591;48.102;11.772;2023-05-10T00:37:16;2.13;;;1.10;;
46116;SDS011;32591;48.102;11.772;2023-05-10T00:39:43;1.65;;;1.38;;
46116;SDS011;32591;48.102;11.772;2023-05-10T00:42:10;1.02;;;0.98;;
46116;SDS011;32591;48.102;11.772;2023-05-10T00:44:37;1.75;;;1.00;;
46116;SDS011;32591;48.102;11.772;2023-05-10T00:47:04;1.73;;;1.25;;
46116;SDS011;32591;48.102;11.772;2023-05-10T00:49:31;2.15;;;1.10;;
46116;SDS011;32591;48.102;11.772;2023-05-10T00:51:58;1.13;;;0.70;;
46116;SDS011;32591;48.102;11.772;2023-05-10T00:54:26;0.70;;;0.70;;
46116;SDS011;32591;48.102;11.772;2023-05-10T00:56:53;2.10;;;0.93;;
46116;SDS011;32591;48.102;11.772;2023-05-10T00:59:22;1.30;;;1.00;;
46116;SDS011;32591;48.102;11.772;2023-05-10T01:01:49;0.80;;;0.60;;
46116;SDS011;32591;48.102;11.772;2023-05-10T01:04:16;0.75;;;0.75;;
46116;SDS011;32591;48.102;11.772;2023-05-10T01:06:45;0.88;;;0.80;;
46116;SDS011;32591;48.102;11.772;2023-05-10T01:09:12;1.25;;;0.80;;
46116;SDS011;32591;48.102;11.772;2023-05-10T01:11:40;0.50;;;0.50;;
46116;SDS011;32591;48.102;11.772;2023-05-10T01:14:07;0.47;;;0.45;;
46116;SDS011;32591;48.102;11.772;2023-05-10T01:16:35;2.75;;;0.88;;
46116;SDS011;32591;48.102;11.772;2023-05-10T01:19:04;0.65;;;0.43;;
46116;SDS011;32591;48.102;11.772;2023-05-10T01:21:38;0.88;;;0.70;;
46116;SDS011;32591;48.102;11.772;2023-05-10T01:27:32;0.90;;;0.60;;
46116;SDS011;32591;48.102;11.772;2023-05-10T01:30:29;1.83;;;0.93;;
46116;SDS011;32591;48.102;11.772;2023-05-10T01:33:36;0.82;;;0.75;;
46116;SDS011;32591;48.102;11.772;2023-05-10T01:36:12;1.02;;;0.63;;
46116;SDS011;32591;48.102;11.772;2023-05-10T01:38:51;1.70;;;0.80;;
46116;SDS011;32591;48.102;11.772;2023-05-10T01:41:24;2.90;;;0.80;;
46116;SDS011;32591;48.102;11.772;2023-05-10T01:44:01;1.35;;;0.90;;
46116;SDS011;32591;48.102;11.772;2023-05-10T01:46:33;2.13;;;0.57;;
46116;SDS011;32591;48.102;11.772;2023-05-10T01:49:07;0.60;;;0.60;;
46116;SDS011;32591;48.102;11.772;2023-05-10T01:51:38;0.50;;;0.50;;
46116;SDS011;32591;48.102;11.772;2023-05-10T01:54:11;0.80;;;0.73;;
46116;SDS011;32591;48.102;11.772;2023-05-10T01:56:40;0.98;;;0.60;;
46116;SDS011;32591;48.102;11.772;2023-05-10T01:59:11;0.55;;;0.47;;
46116;SDS011;32591;48.102;11.772;2023-05-10T02:01:41;1.45;;;0.65;;
46116;SDS011;32591;48.102;11.772;2023-05-10T02:04:13;0.47;;;0.38;;
46116;SDS011;32591;48.102;11.772;2023-05-10T02:06:43;1.25;;;0.63;;
46116;SDS011;32591;48.102;11.772;2023-05-10T02:09:12;1.15;;;0.43;;
46116;SDS011;32591;48.102;11.772;2023-05-10T02:11:41;3.15;;;1.67;;
46116;SDS011;32591;48.102;11.772;2023-05-10T02:14:09;2.28;;;0.98;;
46116;SDS011;32591;48.102;11.772;2023-05-10T02:16:37;1.38;;;0.80;;
46116;SDS011;32591;48.102;11.772;2023-05-10T02:19:05;0.73;;;0.52;;
46116;SDS011;32591;48.102;11.772;2023-05-10T02:21:35;0.80;;;0.57;;
46116;SDS011;32591;48.102;11.772;2023-05-10T02:24:05;1.25;;;0.73;;
46116;SDS011;32591;48.102;11.772;2023-05-10T02:26:33;1.17;;;0.55;;
46116;SDS011;32591;48.102;11.772;2023-05-10T02:29:02;0.93;;;0.93;;
46116;SDS011;32591;48.102;11.772;2023-05-10T02:31:32;1.48;;;0.65;;
46116;SDS011;32591;48.102;11.772;2023-05-10T02:34:00;2.70;;;0.80;;
46116;SDS011;32591;48.102;11.772;2023-05-10T02:36:28;0.75;;;0.60;;
46116;SDS011;32591;48.102;11.772;2023-05-10T02:38:58;1.45;;;0.60;;
46116;SDS011;32591;48.102;11.772;2023-05-10T02:41:28;2.60;;;0.70;;
46116;SDS011;32591;48.102;11.772;2023-05-10T02:43:59;0.90;;;0.63;;
46116;SDS011;32591;48.102;11.772;2023-05-10T02:46:27;1.35;;;1.23;;
46116;SDS011;32591;48.102;11.772;2023-05-10T02:48:54;4.15;;;0.80;;
46116;SDS011;32591;48.102;11.772;2023-05-10T02:51:22;0.93;;;0.70;;
46116;SDS011;32591;48.102;11.772;2023-05-10T02:53:52;1.38;;;0.40;;
46116;SDS011;32591;48.102;11.772;2023-05-10T02:56:25;1.42;;;0.50;;
46116;SDS011;32591;48.102;11.772;2023-05-10T02:58:58;5.68;;;1.95;;
46116;SDS011;32591;48.102;11.772;2023-05-10T03:01:25;2.53;;;0.70;;
46116;SDS011;32591;48.102;11.772;2023-05-10T03:03:52;1.95;;;0.60;;
46116;SDS011;32591;48.102;11.772;2023-05-10T03:06:19;0.52;;;0.52;;
46116;SDS011;32591;48.102;11.772;2023-05-10T03:08:46;0.77;;;0.55;;
46116;SDS011;32591;48.102;11.772;2023-05-10T03:11:19;1.50;;;0.70;;
46116;SDS011;32591;48.102;11.772;2023-05-10T03:14:02;0.77;;;0.52;;
46116;SDS011;32591;48.102;11.772;2023-05-10T03:16:39;1.98;;;0.63;;
46116;SDS011;32591;48.102;11.772;2023-05-10T03:19:14;1.45;;;0.52;;
46116;SDS011;32591;48.102;11.772;2023-05-10T03:21:49;0.63;;;0.57;;
46116;SDS011;32591;48.102;11.772;2023-05-10T03:24:19;1.05;;;0.57;;
46116;SDS011;32591;48.102;11.772;2023-05-10T03:26:50;1.15;;;0.70;;
46116;SDS011;32591;48.102;11.772;2023-05-10T03:29:22;2.38;;;0.55;;
46116;SDS011;32591;48.102;11.772;2023-05-10T03:31:51;1.08;;;0.40;;
46116;SDS011;32591;48.102;11.772;2023-05-10T03:34:22;0.70;;;0.60;;
46116;SDS011;32591;48.102;11.772;2023-05-10T03:36:50;0.50;;;0.50;;
46116;SDS011;32591;48.102;11.772;2023-05-10T03:39:17;2.60;;;0.70;;
46116;SDS011;32591;48.102;11.772;2023-05-10T03:41:44;0.40;;;0.40;;
46116;SDS011;32591;48.102;11.772;2023-05-10T03:44:12;0.57;;;0.40;;
46116;SDS011;32591;48.102;11.772;2023-05-10T03:46:39;0.65;;;0.50;;
46116;SDS011;32591;48.102;11.772;2023-05-10T03:49:06;1.00;;;0.40;;
46116;SDS011;32591;48.102;11.772;2023-05-10T03:51:33;0.85;;;0.43;;
46116;SDS011;32591;48.102;11.772;2023-05-10T03:54:00;0.55;;;0.43;;
46116;SDS011;32591;48.102;11.772;2023-05-10T03:56:27;1.67;;;0.50;;
46116;SDS011;32591;48.102;11.772;2023-05-10T03:58:54;0.30;;;0.20;;
46116;SDS011;32591;48.102;11.772;2023-05-10T04:01:22;2.05;;;0.70;;
46116;SDS011;32591;48.102;11.772;2023-05-10T04:03:49;1.33;;;0.50;;
46116;SDS011;32591;48.102;11.772;2023-05-10T04:06:16;0.75;;;0.45;;
46116;SDS011;32591;48.102;11.772;2023-05-10T04:08:43;0.70;;;0.52;;
46116;SDS011;32591;48.102;11.772;2023-05-10T04:11:11;0.50;;;0.38;;
46116;SDS011;32591;48.102;11.772;2023-05-10T04:13:39;1.25;;;0.50;;
46116;SDS011;32591;48.102;11.772;2023-05-10T04:16:06;0.43;;;0.32;;
46116;SDS011;32591;48.102;11.772;2023-05-10T04:18:34;0.73;;;0.50;;
46116;SDS011;32591;48.102;11.772;2023-05-10T04:21:01;1.38;;;0.35;;
46116;SDS011;32591;48.102;11.772;2023-05-10T04:23:29;1.42;;;0.40;;
46116;SDS011;32591;48.102;11.772;2023-05-10T04:25:59;0.30;;;0.30;;
46116;SDS011;32591;48.102;11.772;2023-05-10T04:28:26;0.73;;;0.47;;
46116;SDS011;32591;48.102;11.772;2023-05-10T04:30:59;1.00;;;0.43;;
46116;SDS011;32591;48.102;11.772;2023-05-10T04:33:28;2.33;;;1.05;;
46116;SDS011;32591;48.102;11.772;2023-05-10T04:35:56;3.72;;;0.43;;
46116;SDS011;32591;48.102;11.772;2023-05-10T04:38:26;0.52;;;0.45;;
46116;SDS011;32591;48.102;11.772;2023-05-10T04:40:53;0.52;;;0.30;;
46116;SDS011;32591;48.102;11.772;2023-05-10T04:43:20;0.90;;;0.50;;
46116;SDS011;32591;48.102;11.772;2023-05-10T04:45:48;0.60;;;0.50;;
46116;SDS011;32591;48.102;11.772;2023-05-10T04:48:15;1.48;;;0.80;;
46116;SDS011;32591;48.102;11.772;2023-05-10T04:50:42;1.50;;;0.68;;
46116;SDS011;32591;48.102;11.772;2023-05-10T04:53:10;1.65;;;0.47;;
46116;SDS011;32591;48.102;11.772;2023-05-10T04:55:37;1.17;;;0.70;;
46116;SDS011;32591;48.102;11.772;2023-05-10T04:58:04;2.08;;;0.40;;
46116;SDS011;32591;48.102;11.772;2023-05-10T05:00:32;3.10;;;1.65;;
46116;SDS011;32591;48.102;11.772;2023-05-10T05:03:00;1.23;;;0.30;;
46116;SDS011;32591;48.102;11.772;2023-05-10T05:05:27;2.10;;;0.38;;
46116;SDS011;32591;48.102;11.772;2023-05-10T05:07:54;0.57;;;0.57;;
46116;SDS011;32591;48.102;11.772;2023-05-10T05:10:22;2.28;;;0.40;;
46116;SDS011;32591;48.102;11.772;2023-05-10T05:12:49;0.90;;;0.85;;
46116;SDS011;32591;48.102;11.772;2023-05-10T05:15:16;0.52;;;0.32;;
46116;SDS011;32591;48.102;11.772;2023-05-10T05:17:43;0.82;;;0.55;;
46116;SDS011;32591;48.102;11.772;2023-05-10T05:20:10;4.85;;;0.40;;
46116;SDS011;32591;48.102;11.772;2023-05-10T05:22:38;1.45;;;0.30;;
46116;SDS011;32591;48.102;11.772;2023-05-10T05:25:05;2.08;;;0.30;;
46116;SDS011;32591;48.102;11.772;2023-05-10T05:27:34;1.73;;;0.50;;
46116;SDS011;32591;48.102;11.772;2023-05-10T05:30:01;1.73;;;0.43;;
46116;SDS011;32591;48.102;11.772;2023-05-10T05:32:29;0.43;;;0.30;;
46116;SDS011;32591;48.102;11.772;2023-05-10T05:34:56;0.68;;;0.22;;
46116;SDS011;32591;48.102;11.772;2023-05-10T05:37:23;0.70;;;0.35;;
46116;SDS011;32591;48.102;11.772;2023-05-10T05:39:50;1.00;;;0.30;;
46116;SDS011;32591;48.102;11.772;2023-05-10T05:42:17;2.10;;;0.43;;
46116;SDS011;32591;48.102;11.772;2023-05-10T05:44:45;1.42;;;0.68;;
46116;SDS011;32591;48.102;11.772;2023-05-10T05:47:12;4.65;;;0.50;;
46116;SDS011;32591;48.102;11.772;2023-05-10T05:49:39;0.90;;;0.63;;
46116;SDS011;32591;48.102;11.772;2023-05-10T05:52:06;0.57;;;0.50;;
46116;SDS011;32591;48.102;11.772;2023-05-10T05:54:33;0.35;;;0.30;;
46116;SDS011;32591;48.102;11.772;2023-05-10T05:57:00;1.83;;;0.40;;
46116;SDS011;32591;48.102;11.772;2023-05-10T05:59:27;1.40;;;0.43;;
46116;SDS011;32591;48.102;11.772;2023-05-10T06:01:56;1.65;;;0.60;;
46116;SDS011;32591;48.102;11.772;2023-05-10T06:04:23;1.75;;;0.80;;
46116;SDS011;32591;48.102;11.772;2023-05-10T06:06:50;0.95;;;0.60;;
46116;SDS011;32591;48.102;11.772;2023-05-10T06:09:17;1.27;;;0.75;;
46116;SDS011;32591;48.102;11.772;2023-05-10T06:11:44;0.90;;;0.60;;
46116;SDS011;32591;48.102;11.772;2023-05-10T06:14:11;4.88;;;0.60;;
46116;SDS011;32591;48.102;11.772;2023-05-10T06:16:38;0.75;;;0.60;;
46116;SDS011;32591;48.102;11.772;2023-05-10T06:19:06;1.67;;;0.40;;
46116;SDS011;32591;48.102;11.772;2023-05-10T06:21:33;1.65;;;0.75;;
46116;SDS011;32591;48.102;11.772;2023-05-10T06:24:00;3.00;;;1.00;;
46116;SDS011;32591;48.102;11.772;2023-05-10T06:26:27;1.42;;;0.70;;
46116;SDS011;32591;48.102;11.772;2023-05-10T06:28:55;2.05;;;0.80;;
46116;SDS011;32591;48.102;11.772;2023-05-10T06:31:23;0.60;;;0.60;;
46116;SDS011;32591;48.102;11.772;2023-05-10T06:33:49;4.05;;;1.00;;
46116;SDS011;32591;48.102;11.772;2023-05-10T06:36:18;6.40;;;1.30;;
46116;SDS011;32591;48.102;11.772;2023-05-10T06:38:45;2.28;;;1.00;;
46116;SDS011;32591;48.102;11.772;2023-05-10T06:41:12;1.58;;;0.93;;
46116;SDS011;32591;48.102;11.772;2023-05-10T06:43:38;2.03;;;0.90;;
46116;SDS011;32591;48.102;11.772;2023-05-10T06:46:06;2.42;;;0.90;;
46116;SDS011;32591;48.102;11.772;2023-05-10T06:48:33;2.13;;;0.88;;
46116;SDS011;32591;48.102;11.772;2023-05-10T06:51:00;0.85;;;0.60;;
46116;SDS011;32591;48.102;11.772;2023-05-10T06:53:28;4.13;;;0.98;;
46116;SDS011;32591;48.102;11.772;2023-05-10T06:55:55;3.17;;;0.95;;
46116;SDS011;32591;48.102;11.772;2023-05-10T06:58:22;2.22;;;0.60;;
46116;SDS011;32591;48.102;11.772;2023-05-10T07:00:49;1.42;;;0.68;;
46116;SDS011;32591;48.102;11.772;2023-05-10T07:03:16;1.30;;;0.82;;
46116;SDS011;32591;48.102;11.772;2023-05-10T07:05:43;0.75;;;0.70;;
46116;SDS011;32591;48.102;11.772;2023-05-10T07:08:10;1.00;;;0.70;;
46116;SDS011;32591;48.102;11.772;2023-05-10T07:10:39;0.88;;;0.65;;
46116;SDS011;32591;48.102;11.772;2023-05-10T07:13:06;1.63;;;0.93;;
46116;SDS011;32591;48.102;11.772;2023-05-10T07:15:33;0.70;;;0.68;;
46116;SDS011;32591;48.102;11.772;2023-05-10T07:18:00;1.63;;;0.90;;
46116;SDS011;32591;48.102;11.772;2023-05-10T07:20:27;1.55;;;0.85;;
46116;SDS011;32591;48.102;11.772;2023-05-10T07:22:54;1.65;;;0.80;;
46116;SDS011;32591;48.102;11.772;2023-05-10T07:25:21;1.15;;;0.65;;
46116;SDS011;32591;48.102;11.772;2023-05-10T07:27:50;1.00;;;0.82;;
46116;SDS011;32591;48.102;11.772;2023-05-10T07:30:17;2.45;;;0.95;;
46116;SDS011;32591;48.102;11.772;2023-05-10T07:32:44;2.28;;;0.90;;
46116;SDS011;32591;48.102;11.772;2023-05-10T07:35:12;1.70;;;0.88;;
46116;SDS011;32591;48.102;11.772;2023-05-10T07:37:39;2.63;;;0.93;;
46116;SDS011;32591;48.102;11.772;2023-05-10T07:40:06;1.55;;;0.93;;
46116;SDS011;32591;48.102;11.772;2023-05-10T07:42:35;2.70;;;1.45;;
46116;SDS011;32591;48.102;11.772;2023-05-10T07:45:03;1.77;;;0.98;;
46116;SDS011;32591;48.102;11.772;2023-05-10T07:47:32;1.85;;;1.33;;
46116;SDS011;32591;48.102;11.772;2023-05-10T07:49:59;1.33;;;1.05;;
46116;SDS011;32591;48.102;11.772;2023-05-10T07:52:26;1.73;;;1.20;;
46116;SDS011;32591;48.102;11.772;2023-05-10T07:54:53;1.80;;;1.05;;
46116;SDS011;32591;48.102;11.772;2023-05-10T07:57:21;1.60;;;0.90;;
46116;SDS011;32591;48.102;11.772;2023-05-10T07:59:48;2.08;;;1.13;;
46116;SDS011;32591;48.102;11.772;2023-05-10T08:02:17;2.10;;;1.00;;
46116;SDS011;32591;48.102;11.772;2023-05-10T08:04:43;1.58;;;1.15;;
46116;SDS011;32591;48.102;11.772;2023-05-10T08:07:10;1.65;;;0.93;;
46116;SDS011;32591;48.102;11.772;2023-05-10T08:09:37;4.28;;;0.90;;
46116;SDS011;32591;48.102;11.772;2023-05-10T08:12:04;2.13;;;1.13;;
46116;SDS011;32591;48.102;11.772;2023-05-10T08:14:32;1.48;;;1.00;;
46116;SDS011;32591;48.102;11.772;2023-05-10T08:16:59;1.20;;;0.85;;
46116;SDS011;32591;48.102;11.772;2023-05-10T08:19:27;5.25;;;1.27;;
46116;SDS011;32591;48.102;11.772;2023-05-10T08:21:54;1.95;;;1.13;;
46116;SDS011;32591;48.102;11.772;2023-05-10T08:24:22;1.77;;;0.75;;
46116;SDS011;32591;48.102;11.772;2023-05-10T08:26:49;1.05;;;0.70;;
46116;SDS011;32591;48.102;11.772;2023-05-10T08:29:16;1.63;;;1.00;;
46116;SDS011;32591;48.102;11.772;2023-05-10T08:31:43;3.22;;;1.40;;
46116;SDS011;32591;48.102;11.772;2023-05-10T08:34:10;1.90;;;1.30;;
46116;SDS011;32591;48.102;11.772;2023-05-10T08:36:39;2.65;;;0.98;;
46116;SDS011;32591;48.102;11.772;2023-05-10T08:39:06;3.10;;;0.90;;
46116;SDS011;32591;48.102;11.772;2023-05-10T08:41:33;1.95;;;0.90;;
46116;SDS011;32591;48.102;11.772;2023-05-10T08:44:02;2.40;;;1.10;;
46116;SDS011;32591;48.102;11.772;2023-05-10T08:46:31;0.60;;;0.55;;
46116;SDS011;32591;48.102;11.772;2023-05-10T08:49:03;2.75;;;0.80;;
46116;SDS011;32591;48.102;11.772;2023-05-10T08:51:36;0.88;;;0.65;;
46116;SDS011;32591;48.102;11.772;2023-05-10T08:54:08;0.90;;;0.50;;
46116;SDS011;32591;48.102;11.772;2023-05-10T08:56:35;1.13;;;0.60;;
46116;SDS011;32591;48.102;11.772;2023-05-10T08:59:02;0.80;;;0.60;;
46116;SDS011;32591;48.102;11.772;2023-05-10T09:01:30;1.80;;;1.48;;
46116;SDS011;32591;48.102;11.772;2023-05-10T09:03:58;1.20;;;0.80;;
46116;SDS011;32591;48.102;11.772;2023-05-10T09:06:25;1.83;;;0.65;;
46116;SDS011;32591;48.102;11.772;2023-05-10T09:08:55;1.05;;;0.65;;
46116;SDS011;32591;48.102;11.772;2023-05-10T09:11:22;1.65;;;0.60;;
46116;SDS011;32591;48.102;11.772;2023-05-10T09:13:50;2.03;;;0.95;;
46116;SDS011;32591;48.102;11.772;2023-05-10T09:16:19;2.10;;;0.60;;
46116;SDS011;32591;48.102;11.772;2023-05-10T09:18:46;2.90;;;0.70;;
46116;SDS011;32591;48.102;11.772;2023-05-10T09:21:14;0.65;;;0.57;;
46116;SDS011;32591;48.102;11.772;2023-05-10T09:23:42;1.98;;;0.50;;
46116;SDS011;32591;48.102;11.772;2023-05-10T09:26:10;1.75;;;0.60;;
46116;SDS011;32591;48.102;11.772;2023-05-10T09:28:50;1.15;;;0.60;;
46116;SDS011;32591;48.102;11.772;2023-05-10T09:31:18;0.47;;;0.47;;
46116;SDS011;32591;48.102;11.772;2023-05-10T09:33:46;0.63;;;0.38;;
46116;SDS011;32591;48.102;11.772;2023-05-10T09:36:14;0.95;;;0.52;;
46116;SDS011;32591;48.102;11.772;2023-05-10T09:38:45;0.85;;;0.35;;
46116;SDS011;32591;48.102;11.772;2023-05-10T09:41:18;0.85;;;0.55;;
46116;SDS011;32591;48.102;11.772;2023-05-10T09:43:46;1.92;;;0.63;;
46116;SDS011;32591;48.102;11.772;2023-05-10T09:46:14;2.55;;;0.70;;
46116;SDS011;32591;48.102;11.772;2023-05-10T09:48:43;2.83;;;0.60;;
46116;SDS011;32591;48.102;11.772;2023-05-10T09:51:17;2.03;;;0.50;;
46116;SDS011;32591;48.102;11.772;2023-05-10T09:53:46;1.67;;;0.80;;
46116;SDS011;32591;48.102;11.772;2023-05-10T09:56:23;1.10;;;0.70;;
46116;SDS011;32591;48.102;11.772;2023-05-10T09:59:02;1.10;;;0.70;;
46116;SDS011;32591;48.102;11.772;2023-05-10T10:01:30;2.25;;;0.70;;
46116;SDS011;32591;48.102;11.772;2023-05-10T10:03:57;1.30;;;0.70;;
46116;SDS011;32591;48.102;11.772;2023-05-10T10:06:24;1.45;;;0.70;;
46116;SDS011;32591;48.102;11.772;2023-05-10T10:08:51;1.98;;;0.60;;
46116;SDS011;32591;48.102;11.772;2023-05-10T10:11:21;2.25;;;0.70;;
46116;SDS011;32591;48.102;11.772;2023-05-10T10:13:51;0.75;;;0.73;;
46116;SDS011;32591;48.102;11.772;2023-05-10T10:16:18;1.38;;;0.88;;
46116;SDS011;32591;48.102;11.772;2023-05-10T10:18:46;0.82;;;0.55;;
46116;SDS011;32591;48.102;11.772;2023-05-10T10:21:13;0.73;;;0.55;;
46116;SDS011;32591;48.102;11.772;2023-05-10T10:23:41;2.65;;;1.00;;
46116;SDS011;32591;48.102;11.772;2023-05-10T10:26:09;1.23;;;0.65;;
46116;SDS011;32591;48.102;11.772;2023-05-10T10:28:41;2.58;;;0.75;;
46116;SDS011;32591;48.102;11.772;2023-05-10T10:31:30;1.00;;;0.75;;
46116;SDS011;32591;48.102;11.772;2023-05-10T10:34:05;1.13;;;0.85;;
46116;SDS011;32591;48.102;11.772;2023-05-10T10:36:39;2.70;;;1.98;;
46116;SDS011;32591;48.102;11.772;2023-05-10T10:39:09;2.53;;;1.00;;
46116;SDS011;32591;48.102;11.772;2023-05-10T10:41:37;1.92;;;1.02;;
46116;SDS011;32591;48.102;11.772;2023-05-10T10:47:05;3.10;;;0.68;;
46116;SDS011;32591;48.102;11.772;2023-05-10T10:49:44;2.85;;;0.98;;
46116;SDS011;32591;48.102;11.772;2023-05-10T10:52:21;1.95;;;0.88;;
46116;SDS011;32591;48.102;11.772;2023-05-10T10:54:53;2.70;;;0.90;;
46116;SDS011;32591;48.102;11.772;2023-05-10T10:57:26;1.23;;;0.88;;
46116;SDS011;32591;48.102;11.772;2023-05-10T11:02:53;2.22;;;0.90;;
46116;SDS011;32591;48.102;11.772;2023-05-10T11:05:34;1.58;;;1.05;;
46116;SDS011;32591;48.102;11.772;2023-05-10T11:08:07;3.67;;;1.23;;
46116;SDS011;32591;48.102;11.772;2023-05-10T11:10:51;1.77;;;1.17;;
46116;SDS011;32591;48.102;11.772;2023-05-10T11:13:26;3.38;;;1.63;;
46116;SDS011;32591;48.102;11.772;2023-05-10T11:15:56;2.67;;;1.33;;
46116;SDS011;32591;48.102;11.772;2023-05-10T11:18:25;2.88;;;1.08;;
46116;SDS011;32591;48.102;11.772;2023-05-10T11:20:56;3.25;;;0.95;;
46116;SDS011;32591;48.102;11.772;2023-05-10T11:23:29;1.58;;;0.98;;
46116;SDS011;32591;48.102;11.772;2023-05-10T11:25:58;1.95;;;1.08;;
46116;SDS011;32591;48.102;11.772;2023-05-10T11:28:26;2.53;;;1.63;;
46116;SDS011;32591;48.102;11.772;2023-05-10T11:30:53;1.95;;;1.40;;
46116;SDS011;32591;48.102;11.772;2023-05-10T11:33:22;1.60;;;1.30;;
46116;SDS011;32591;48.102;11.772;2023-05-10T11:35:49;2.22;;;1.38;;
46116;SDS011;32591;48.102;11.772;2023-05-10T11:38:16;6.63;;;2.08;;
46116;SDS011;32591;48.102;11.772;2023-05-10T11:40:43;4.47;;;1.88;;
46116;SDS011;32591;48.102;11.772;2023-05-10T11:43:10;2.13;;;1.45;;
46116;SDS011;32591;48.102;11.772;2023-05-10T11:45:37;4.40;;;1.88;;
46116;SDS011;32591;48.102;11.772;2023-05-10T11:48:07;2.63;;;1.92;;
46116;SDS011;32591;48.102;11.772;2023-05-10T11:50:36;5.40;;;1.90;;
46116;SDS011;32591;48.102;11.772;2023-05-10T11:53:03;3.10;;;1.58;;
46116;SDS011;32591;48.102;11.772;2023-05-10T11:55:32;3.47;;;1.70;;
46116;SDS011;32591;48.102;11.772;2023-05-10T11:58:01;2.90;;;1.40;;
46116;SDS011;32591;48.102;11.772;2023-05-10T12:00:29;3.42;;;1.70;;
46116;SDS011;32591;48.102;11.772;2023-05-10T12:02:57;3.00;;;1.77;;
46116;SDS011;32591;48.102;11.772;2023-05-10T12:05:24;3.47;;;1.50;;
46116;SDS011;32591;48.102;11.772;2023-05-10T12:07:53;2.88;;;1.52;;
46116;SDS011;32591;48.102;11.772;2023-05-10T12:10:38;5.45;;;1.60;;
46116;SDS011;32591;48.102;11.772;2023-05-10T12:13:05;3.88;;;1.63;;
46116;SDS011;32591;48.102;11.772;2023-05-10T12:15:37;7.93;;;2.42;;
46116;SDS011;32591;48.102;11.772;2023-05-10T12:18:04;6.43;;;1.70;;
46116;SDS011;32591;48.102;11.772;2023-05-10T12:20:31;4.32;;;1.63;;
46116;SDS011;32591;48.102;11.772;2023-05-10T12:22:59;4.07;;;1.00;;
46116;SDS011;32591;48.102;11.772;2023-05-10T12:25:29;5.22;;;1.35;;
46116;SDS011;32591;48.102;11.772;2023-05-10T12:27:58;6.15;;;1.40;;
46116;SDS011;32591;48.102;11.772;2023-05-10T12:30:29;4.82;;;1.40;;
46116;SDS011;32591;48.102;11.772;2023-05-10T12:33:01;3.20;;;1.00;;
46116;SDS011;32591;48.102;11.772;2023-05-10T12:35:44;6.70;;;1.20;;
46116;SDS011;32591;48.102;11.772;2023-05-10T12:38:27;4.32;;;2.05;;
46116;SDS011;32591;48.102;11.772;2023-05-10T12:40:59;2.92;;;1.10;;
46116;SDS011;32591;48.102;11.772;2023-05-10T12:43:27;1.70;;;1.30;;
46116;SDS011;32591;48.102;11.772;2023-05-10T12:45:54;4.43;;;2.25;;
46116;SDS011;32591;48.102;11.772;2023-05-10T12:48:21;2.15;;;1.55;;
46116;SDS011;32591;48.102;11.772;2023-05-10T12:50:48;2.72;;;1.80;;
46116;SDS011;32591;48.102;11.772;2023-05-10T12:53:16;2.22;;;1.63;;
46116;SDS011;32591;48.102;11.772;2023-05-10T12:55:44;4.53;;;1.90;;
46116;SDS011;32591;48.102;11.772;2023-05-10T12:58:12;2.10;;;1.52;;
46116;SDS011;32591;48.102;11.772;2023-05-10T13:00:39;3.00;;;1.80;;
46116;SDS011;32591;48.102;11.772;2023-05-10T13:03:06;2.72;;;1.67;;
46116;SDS011;32591;48.102;11.772;2023-05-10T13:05:34;3.97;;;2.42;;
46116;SDS011;32591;48.102;11.772;2023-05-10T13:08:00;5.07;;;2.47;;
46116;SDS011;32591;48.102;11.772;2023-05-10T13:10:28;8.68;;;2.13;;
46116;SDS011;32591;48.102;11.772;2023-05-10T13:12:58;14.73;;;5.22;;
46116;SDS011;32591;48.102;11.772;2023-05-10T13:15:25;21.60;;;6.55;;
46116;SDS011;32591;48.102;11.772;2023-05-10T13:17:52;13.82;;;3.33;;
46116;SDS011;32591;48.102;11.772;2023-05-10T13:20:20;2.33;;;1.80;;
46116;SDS011;32591;48.102;11.772;2023-05-10T13:22:47;2.60;;;1.70;;
46116;SDS011;32591;48.102;11.772;2023-05-10T13:25:14;2.83;;;1.80;;
46116;SDS011;32591;48.102;11.772;2023-05-10T13:27:41;4.97;;;1.55;;
46116;SDS011;32591;48.102;11.772;2023-05-10T13:30:10;3.55;;;1.80;;
46116;SDS011;32591;48.102;11.772;2023-05-10T13:32:38;2.25;;;1.52;;
46116;SDS011;32591;48.102;11.772;2023-05-10T13:35:05;3.33;;;1.75;;
46116;SDS011;32591;48.102;11.772;2023-05-10T13:37:33;2.67;;;1.60;;
46116;SDS011;32591;48.102;11.772;2023-05-10T13:40:03;2.88;;;1.58;;
46116;SDS011;32591;48.102;11.772;2023-05-10T13:42:31;1.70;;;1.40;;
46116;SDS011;32591;48.102;11.772;2023-05-10T13:44:58;2.13;;;1.10;;
46116;SDS011;32591;48.102;11.772;2023-05-10T13:47:27;3.22;;;1.52;;
46116;SDS011;32591;48.102;11.772;2023-05-10T13:49:54;3.10;;;1.70;;
46116;SDS011;32591;48.102;11.772;2023-05-10T13:52:22;1.88;;;1.38;;
46116;SDS011;32591;48.102;11.772;2023-05-10T13:54:49;2.33;;;0.98;;
46116;SDS011;32591;48.102;11.772;2023-05-10T13:57:19;3.30;;;1.35;;
46116;SDS011;32591;48.102;11.772;2023-05-10T13:59:47;3.25;;;1.95;;
46116;SDS011;32591;48.102;11.772;2023-05-10T14:02:14;4.03;;;1.60;;
46116;SDS011;32591;48.102;11.772;2023-05-10T14:04:42;1.80;;;1.30;;
46116;SDS011;32591;48.102;11.772;2023-05-10T14:07:09;2.78;;;1.10;;
46116;SDS011;32591;48.102;11.772;2023-05-10T14:09:36;3.50;;;1.70;;
46116;SDS011;32591;48.102;11.772;2023-05-10T14:12:03;3.90;;;1.90;;
46116;SDS011;32591;48.102;11.772;2023-05-10T14:14:30;3.55;;;2.28;;
46116;SDS011;32591;48.102;11.772;2023-05-10T14:16:57;3.05;;;1.60;;
46116;SDS011;32591;48.102;11.772;2023-05-10T14:19:24;3.97;;;2.88;;
46116;SDS011;32591;48.102;11.772;2023-05-10T14:21:53;3.72;;;1.60;;
46116;SDS011;32591;48.102;11.772;2023-05-10T14:24:20;2.55;;;1.15;;
46116;SDS011;32591;48.102;11.772;2023-05-10T14:26:47;2.17;;;0.90;;
46116;SDS011;32591;48.102;11.772;2023-05-10T14:29:14;2.88;;;1.00;;
46116;SDS011;32591;48.102;11.772;2023-05-10T14:31:41;1.20;;;0.80;;
46116;SDS011;32591;48.102;11.772;2023-05-10T14:34:07;1.20;;;1.10;;
46116;SDS011;32591;48.102;11.772;2023-05-10T14:36:34;2.50;;;1.25;;
46116;SDS011;32591;48.102;11.772;2023-05-10T14:39:03;2.55;;;1.10;;
46116;SDS011;32591;48.102;11.772;2023-05-10T14:41:30;2.85;;;1.40;;
46116;SDS011;32591;48.102;11.772;2023-05-10T14:43:57;2.03;;;1.20;;
46116;SDS011;32591;48.102;11.772;2023-05-10T14:46:24;2.78;;;1.60;;
46116;SDS011;32591;48.102;11.772;2023-05-10T14:48:51;2.40;;;1.08;;
46116;SDS011;32591;48.102;11.772;2023-05-10T14:51:18;2.13;;;1.27;;